sensor_id;sensor_type;location;lat;lon;timestamp;P1;durP1;ratioP1;P2;durP2;ratioP2
28003;SDS011;15330;51.234;6.754;2024-03-02T00:00:15;3.78;;;2.17;;
28003;SDS011;15330;51.234;6.754;2024-03-02T00:05:07;5.07;;;2.17;;
28003;SDS011;15330;51.234;6.754;2024-03-02T00:07:33;6.15;;;2.40;;
28003;SDS011;15330;51.234;6.754;2024-03-02T00:09:58;3.10;;;2.10;;
28003;SDS011;15330;51.234;6.754;2024-03-02T00:12:25;5.43;;;2.17;;
28003;SDS011;15330;51.234;6.754;2024-03-02T00:14:51;3.70;;;2.20;;
28003;SDS011;15330;51.234;6.754;2024-03-02T00:17:25;3.67;;;2.60;;
28003;SDS011;15330;51.234;6.754;2024-03-02T00:19:51;4.65;;;2.63;;
28003;SDS011;15330;51.234;6.754;2024-03-02T00:22:17;3.78;;;2.63;;
28003;SDS011;15330;51.234;6.754;2024-03-02T00:24:43;5.22;;;2.55;;
28003;SDS011;15330;51.234;6.754;2024-03-02T00:27:08;3.03;;;2.20;;
28003;SDS011;15330;51.234;6.754;2024-03-02T00:29:39;4.85;;;2.30;;
28003;SDS011;15330;51.234;6.754;2024-03-02T00:32:09;3.03;;;2.20;;
28003;SDS011;15330;51.234;6.754;2024-03-02T00:34:38;3.55;;;2.22;;
28003;SDS011;15330;51.234;6.754;2024-03-02T00:37:04;3.00;;;2.10;;
28003;SDS011;15330;51.234;6.754;2024-03-02T00:39:30;3.53;;;2.55;;
28003;SDS011;15330;51.234;6.754;2024-03-02T00:41:55;2.85;;;2.10;;
28003;SDS011;15330;51.234;6.754;2024-03-02T00:44:21;6.45;;;2.40;;
28003;SDS011;15330;51.234;6.754;2024-03-02T00:46:51;4.45;;;2.35;;
28003;SDS011;15330;51.234;6.754;2024-03-02T00:49:21;2.15;;;1.90;;
28003;SDS011;15330;51.234;6.754;2024-03-02T00:51:48;4.30;;;2.22;;
28003;SDS011;15330;51.234;6.754;2024-03-02T00:54:15;3.80;;;2.40;;
28003;SDS011;15330;51.234;6.754;2024-03-02T00:56:45;5.65;;;2.40;;
28003;SDS011;15330;51.234;6.754;2024-03-02T00:59:12;3.60;;;2.10;;
28003;SDS011;15330;51.234;6.754;2024-03-02T01:01:37;4.68;;;2.58;;
28003;SDS011;15330;51.234;6.754;2024-03-02T01:04:03;3.67;;;2.53;;
28003;SDS011;15330;51.234;6.754;2024-03-02T01:06:28;3.35;;;2.15;;
28003;SDS011;15330;51.234;6.754;2024-03-02T01:08:55;4.63;;;2.60;;
28003;SDS011;15330;51.234;6.754;2024-03-02T01:11:20;3.83;;;2.35;;
28003;SDS011;15330;51.234;6.754;2024-03-02T01:13:49;3.95;;;2.00;;
28003;SDS011;15330;51.234;6.754;2024-03-02T01:16:14;4.45;;;2.60;;
28003;SDS011;15330;51.234;6.754;2024-03-02T01:18:40;3.38;;;2.22;;
28003;SDS011;15330;51.234;6.754;2024-03-02T01:21:07;4.28;;;2.30;;
28003;SDS011;15330;51.234;6.754;2024-03-02T01:23:32;4.15;;;2.17;;
28003;SDS011;15330;51.234;6.754;2024-03-02T01:25:58;3.28;;;1.95;;
28003;SDS011;15330;51.234;6.754;2024-03-02T01:28:23;2.90;;;1.90;;
28003;SDS011;15330;51.234;6.754;2024-03-02T01:30:49;4.70;;;2.10;;
28003;SDS011;15330;51.234;6.754;2024-03-02T01:33:14;3.72;;;2.20;;
28003;SDS011;15330;51.234;6.754;2024-03-02T01:35:41;5.15;;;2.20;;
28003;SDS011;15330;51.234;6.754;2024-03-02T01:38:06;3.60;;;1.77;;
28003;SDS011;15330;51.234;6.754;2024-03-02T01:40:33;8.02;;;2.35;;
28003;SDS011;15330;51.234;6.754;2024-03-02T01:42:59;3.35;;;2.03;;
28003;SDS011;15330;51.234;6.754;2024-03-02T01:45:24;4.43;;;2.10;;
28003;SDS011;15330;51.234;6.754;2024-03-02T01:47:50;2.80;;;1.65;;
28003;SDS011;15330;51.234;6.754;2024-03-02T01:50:15;4.38;;;1.83;;
28003;SDS011;15330;51.234;6.754;2024-03-02T01:52:41;4.50;;;2.22;;
28003;SDS011;15330;51.234;6.754;2024-03-02T01:55:09;2.03;;;1.70;;
28003;SDS011;15330;51.234;6.754;2024-03-02T01:57:34;2.95;;;2.10;;
28003;SDS011;15330;51.234;6.754;2024-03-02T02:00:00;3.25;;;1.70;;
28003;SDS011;15330;51.234;6.754;2024-03-02T02:02:25;3.75;;;1.70;;
28003;SDS011;15330;51.234;6.754;2024-03-02T02:04:51;1.92;;;1.52;;
28003;SDS011;15330;51.234;6.754;2024-03-02T02:07:17;2.75;;;1.65;;
28003;SDS011;15330;51.234;6.754;2024-03-02T02:09:42;2.95;;;2.33;;
28003;SDS011;15330;51.234;6.754;2024-03-02T02:12:08;2.92;;;1.92;;
28003;SDS011;15330;51.234;6.754;2024-03-02T02:14:35;2.92;;;2.05;;
28003;SDS011;15330;51.234;6.754;2024-03-02T02:17:00;4.57;;;1.98;;
28003;SDS011;15330;51.234;6.754;2024-03-02T02:19:26;3.42;;;2.17;;
28003;SDS011;15330;51.234;6.754;2024-03-02T02:21:51;4.57;;;1.90;;
28003;SDS011;15330;51.234;6.754;2024-03-02T02:24:16;2.83;;;2.17;;
28003;SDS011;15330;51.234;6.754;2024-03-02T02:26:42;2.17;;;1.80;;
28003;SDS011;15330;51.234;6.754;2024-03-02T02:29:07;3.28;;;2.25;;
28003;SDS011;15330;51.234;6.754;2024-03-02T02:31:39;4.07;;;1.92;;
28003;SDS011;15330;51.234;6.754;2024-03-02T02:34:05;3.83;;;1.80;;
28003;SDS011;15330;51.234;6.754;2024-03-02T02:36:31;2.47;;;1.80;;
28003;SDS011;15330;51.234;6.754;2024-03-02T02:38:57;2.95;;;1.90;;
28003;SDS011;15330;51.234;6.754;2024-03-02T02:41:25;7.57;;;2.08;;
28003;SDS011;15330;51.234;6.754;2024-03-02T02:43:50;4.30;;;1.77;;
28003;SDS011;15330;51.234;6.754;2024-03-02T02:46:16;3.35;;;1.88;;
28003;SDS011;15330;51.234;6.754;2024-03-02T02:48:41;5.60;;;2.28;;
28003;SDS011;15330;51.234;6.754;2024-03-02T02:51:06;3.00;;;1.80;;
28003;SDS011;15330;51.234;6.754;2024-03-02T02:53:32;7.10;;;2.42;;
28003;SDS011;15330;51.234;6.754;2024-03-02T02:55:57;2.92;;;1.98;;
28003;SDS011;15330;51.234;6.754;2024-03-02T02:58:22;2.90;;;1.77;;
28003;SDS011;15330;51.234;6.754;2024-03-02T03:00:48;3.60;;;2.10;;
28003;SDS011;15330;51.234;6.754;2024-03-02T03:03:13;5.68;;;2.40;;
28003;SDS011;15330;51.234;6.754;2024-03-02T03:05:39;3.53;;;2.17;;
28003;SDS011;15330;51.234;6.754;2024-03-02T03:08:05;2.50;;;1.92;;
28003;SDS011;15330;51.234;6.754;2024-03-02T03:10:30;4.32;;;2.33;;
28003;SDS011;15330;51.234;6.754;2024-03-02T03:12:55;7.78;;;2.03;;
28003;SDS011;15330;51.234;6.754;2024-03-02T03:15:21;3.05;;;1.80;;
28003;SDS011;15330;51.234;6.754;2024-03-02T03:17:46;3.80;;;2.00;;
28003;SDS011;15330;51.234;6.754;2024-03-02T03:20:12;3.35;;;1.88;;
28003;SDS011;15330;51.234;6.754;2024-03-02T03:22:39;2.42;;;1.77;;
28003;SDS011;15330;51.234;6.754;2024-03-02T03:25:05;11.18;;;2.53;;
28003;SDS011;15330;51.234;6.754;2024-03-02T03:27:33;4.07;;;1.98;;
28003;SDS011;15330;51.234;6.754;2024-03-02T03:29:58;2.40;;;1.90;;
28003;SDS011;15330;51.234;6.754;2024-03-02T03:32:23;3.63;;;2.30;;
28003;SDS011;15330;51.234;6.754;2024-03-02T03:34:49;4.28;;;1.88;;
28003;SDS011;15330;51.234;6.754;2024-03-02T03:37:15;3.13;;;2.10;;
28003;SDS011;15330;51.234;6.754;2024-03-02T03:39:40;5.97;;;2.17;;
28003;SDS011;15330;51.234;6.754;2024-03-02T03:42:06;3.08;;;2.08;;
28003;SDS011;15330;51.234;6.754;2024-03-02T03:44:31;4.07;;;2.20;;
28003;SDS011;15330;51.234;6.754;2024-03-02T03:46:57;4.85;;;2.08;;
28003;SDS011;15330;51.234;6.754;2024-03-02T03:49:22;3.97;;;2.00;;
28003;SDS011;15330;51.234;6.754;2024-03-02T03:51:48;4.20;;;1.95;;
28003;SDS011;15330;51.234;6.754;2024-03-02T03:54:13;4.40;;;1.70;;
28003;SDS011;15330;51.234;6.754;2024-03-02T03:56:38;5.80;;;2.03;;
28003;SDS011;15330;51.234;6.754;2024-03-02T03:59:04;4.20;;;2.22;;
28003;SDS011;15330;51.234;6.754;2024-03-02T04:01:30;3.30;;;2.17;;
28003;SDS011;15330;51.234;6.754;2024-03-02T04:03:56;6.90;;;2.08;;
28003;SDS011;15330;51.234;6.754;2024-03-02T04:06:22;4.22;;;2.08;;
28003;SDS011;15330;51.234;6.754;2024-03-02T04:08:48;3.72;;;2.33;;
28003;SDS011;15330;51.234;6.754;2024-03-02T04:11:13;4.20;;;2.10;;
28003;SDS011;15330;51.234;6.754;2024-03-02T04:13:38;6.82;;;2.72;;
28003;SDS011;15330;51.234;6.754;2024-03-02T04:16:04;3.70;;;2.33;;
28003;SDS011;15330;51.234;6.754;2024-03-02T04:18:30;4.97;;;2.13;;
28003;SDS011;15330;51.234;6.754;2024-03-02T04:20:57;4.18;;;2.05;;
28003;SDS011;15330;51.234;6.754;2024-03-02T04:23:24;2.70;;;2.13;;
28003;SDS011;15330;51.234;6.754;2024-03-02T04:25:50;3.45;;;2.20;;
28003;SDS011;15330;51.234;6.754;2024-03-02T04:28:15;3.80;;;2.30;;
28003;SDS011;15330;51.234;6.754;2024-03-02T04:30:40;3.03;;;2.00;;
28003;SDS011;15330;51.234;6.754;2024-03-02T04:33:07;4.38;;;2.10;;
28003;SDS011;15330;51.234;6.754;2024-03-02T04:35:35;2.60;;;1.80;;
28003;SDS011;15330;51.234;6.754;2024-03-02T04:38:01;4.18;;;1.90;;
28003;SDS011;15330;51.234;6.754;2024-03-02T04:40:26;7.28;;;2.10;;
28003;SDS011;15330;51.234;6.754;2024-03-02T04:42:51;3.97;;;2.40;;
28003;SDS011;15330;51.234;6.754;2024-03-02T04:45:17;2.42;;;1.70;;
28003;SDS011;15330;51.234;6.754;2024-03-02T04:47:42;3.67;;;2.00;;
28003;SDS011;15330;51.234;6.754;2024-03-02T04:50:07;3.75;;;2.10;;
28003;SDS011;15330;51.234;6.754;2024-03-02T04:52:33;3.10;;;2.00;;
28003;SDS011;15330;51.234;6.754;2024-03-02T04:54:58;2.45;;;1.83;;
28003;SDS011;15330;51.234;6.754;2024-03-02T04:57:42;2.30;;;1.95;;
28003;SDS011;15330;51.234;6.754;2024-03-02T05:00:08;4.32;;;2.20;;
28003;SDS011;15330;51.234;6.754;2024-03-02T05:02:34;3.15;;;2.50;;
28003;SDS011;15330;51.234;6.754;2024-03-02T05:05:00;3.20;;;1.92;;
28003;SDS011;15330;51.234;6.754;2024-03-02T05:07:25;2.30;;;1.90;;
28003;SDS011;15330;51.234;6.754;2024-03-02T05:09:51;5.95;;;2.90;;
28003;SDS011;15330;51.234;6.754;2024-03-02T05:12:16;4.60;;;2.17;;
28003;SDS011;15330;51.234;6.754;2024-03-02T05:14:42;4.00;;;2.05;;
28003;SDS011;15330;51.234;6.754;2024-03-02T05:17:07;4.07;;;2.53;;
28003;SDS011;15330;51.234;6.754;2024-03-02T05:19:33;5.38;;;2.42;;
28003;SDS011;15330;51.234;6.754;2024-03-02T05:21:58;7.47;;;2.60;;
28003;SDS011;15330;51.234;6.754;2024-03-02T05:24:24;3.58;;;2.22;;
28003;SDS011;15330;51.234;6.754;2024-03-02T05:26:52;3.42;;;2.13;;
28003;SDS011;15330;51.234;6.754;2024-03-02T05:29:17;3.35;;;2.50;;
28003;SDS011;15330;51.234;6.754;2024-03-02T05:31:43;7.35;;;2.95;;
28003;SDS011;15330;51.234;6.754;2024-03-02T05:34:09;7.43;;;2.60;;
28003;SDS011;15330;51.234;6.754;2024-03-02T05:36:34;4.82;;;2.10;;
28003;SDS011;15330;51.234;6.754;2024-03-02T05:39:00;4.55;;;2.10;;
28003;SDS011;15330;51.234;6.754;2024-03-02T05:41:25;5.22;;;2.40;;
28003;SDS011;15330;51.234;6.754;2024-03-02T05:43:50;7.68;;;2.70;;
28003;SDS011;15330;51.234;6.754;2024-03-02T05:46:16;5.53;;;2.58;;
28003;SDS011;15330;51.234;6.754;2024-03-02T05:48:41;3.20;;;2.22;;
28003;SDS011;15330;51.234;6.754;2024-03-02T05:51:07;4.38;;;2.20;;
28003;SDS011;15330;51.234;6.754;2024-03-02T05:53:32;5.10;;;2.92;;
28003;SDS011;15330;51.234;6.754;2024-03-02T05:55:57;4.88;;;2.55;;
28003;SDS011;15330;51.234;6.754;2024-03-02T05:58:23;5.00;;;2.42;;
28003;SDS011;15330;51.234;6.754;2024-03-02T06:01:07;5.05;;;2.40;;
28003;SDS011;15330;51.234;6.754;2024-03-02T06:03:32;5.22;;;2.50;;
28003;SDS011;15330;51.234;6.754;2024-03-02T06:05:58;6.25;;;2.80;;
28003;SDS011;15330;51.234;6.754;2024-03-02T06:08:23;3.92;;;2.65;;
28003;SDS011;15330;51.234;6.754;2024-03-02T06:10:49;3.55;;;2.28;;
28003;SDS011;15330;51.234;6.754;2024-03-02T06:13:14;2.88;;;2.30;;
28003;SDS011;15330;51.234;6.754;2024-03-02T06:15:40;3.63;;;2.45;;
28003;SDS011;15330;51.234;6.754;2024-03-02T06:18:05;4.88;;;2.50;;
28003;SDS011;15330;51.234;6.754;2024-03-02T06:20:32;4.82;;;2.40;;
28003;SDS011;15330;51.234;6.754;2024-03-02T06:22:58;4.50;;;2.60;;
28003;SDS011;15330;51.234;6.754;2024-03-02T06:25:23;4.45;;;2.28;;
28003;SDS011;15330;51.234;6.754;2024-03-02T06:27:49;5.72;;;2.58;;
28003;SDS011;15330;51.234;6.754;2024-03-02T06:30:14;3.38;;;2.38;;
28003;SDS011;15330;51.234;6.754;2024-03-02T06:32:40;4.07;;;2.70;;
28003;SDS011;15330;51.234;6.754;2024-03-02T06:35:05;4.60;;;2.63;;
28003;SDS011;15330;51.234;6.754;2024-03-02T06:37:35;5.20;;;2.80;;
28003;SDS011;15330;51.234;6.754;2024-03-02T06:40:02;9.68;;;2.88;;
28003;SDS011;15330;51.234;6.754;2024-03-02T06:42:27;5.45;;;2.60;;
28003;SDS011;15330;51.234;6.754;2024-03-02T06:44:58;4.25;;;2.20;;
28003;SDS011;15330;51.234;6.754;2024-03-02T06:47:23;6.20;;;2.70;;
28003;SDS011;15330;51.234;6.754;2024-03-02T06:49:51;4.97;;;2.45;;
28003;SDS011;15330;51.234;6.754;2024-03-02T06:52:16;4.32;;;2.80;;
28003;SDS011;15330;51.234;6.754;2024-03-02T06:54:42;7.35;;;2.90;;
28003;SDS011;15330;51.234;6.754;2024-03-02T06:57:07;5.18;;;2.72;;
28003;SDS011;15330;51.234;6.754;2024-03-02T06:59:33;6.35;;;2.75;;
28003;SDS011;15330;51.234;6.754;2024-03-02T07:01:59;5.07;;;2.80;;
28003;SDS011;15330;51.234;6.754;2024-03-02T07:04:24;8.02;;;3.00;;
28003;SDS011;15330;51.234;6.754;2024-03-02T07:06:50;8.70;;;2.80;;
28003;SDS011;15330;51.234;6.754;2024-03-02T07:09:17;4.75;;;2.83;;
28003;SDS011;15330;51.234;6.754;2024-03-02T07:11:42;4.13;;;3.10;;
28003;SDS011;15330;51.234;6.754;2024-03-02T07:14:08;5.25;;;2.67;;
28003;SDS011;15330;51.234;6.754;2024-03-02T07:16:33;3.90;;;2.67;;
28003;SDS011;15330;51.234;6.754;2024-03-02T07:18:59;3.80;;;2.90;;
28003;SDS011;15330;51.234;6.754;2024-03-02T07:21:26;3.60;;;2.80;;
28003;SDS011;15330;51.234;6.754;2024-03-02T07:23:52;4.65;;;2.65;;
28003;SDS011;15330;51.234;6.754;2024-03-02T07:26:18;4.38;;;2.83;;
28003;SDS011;15330;51.234;6.754;2024-03-02T07:28:47;4.78;;;3.08;;
28003;SDS011;15330;51.234;6.754;2024-03-02T07:31:14;5.25;;;2.80;;
28003;SDS011;15330;51.234;6.754;2024-03-02T07:33:39;5.28;;;3.22;;
28003;SDS011;15330;51.234;6.754;2024-03-02T07:36:04;3.63;;;2.90;;
28003;SDS011;15330;51.234;6.754;2024-03-02T07:38:30;6.57;;;3.33;;
28003;SDS011;15330;51.234;6.754;2024-03-02T07:40:57;3.33;;;2.78;;
28003;SDS011;15330;51.234;6.754;2024-03-02T07:43:23;4.82;;;3.00;;
28003;SDS011;15330;51.234;6.754;2024-03-02T07:45:48;6.40;;;2.90;;
28003;SDS011;15330;51.234;6.754;2024-03-02T07:48:14;5.47;;;2.97;;
28003;SDS011;15330;51.234;6.754;2024-03-02T07:50:40;5.47;;;3.63;;
28003;SDS011;15330;51.234;6.754;2024-03-02T07:53:05;7.55;;;3.20;;
28003;SDS011;15330;51.234;6.754;2024-03-02T07:55:33;5.88;;;3.50;;
28003;SDS011;15330;51.234;6.754;2024-03-02T07:57:59;7.70;;;3.05;;
28003;SDS011;15330;51.234;6.754;2024-03-02T08:00:25;5.85;;;3.67;;
28003;SDS011;15330;51.234;6.754;2024-03-02T08:02:52;5.72;;;3.53;;
28003;SDS011;15330;51.234;6.754;2024-03-02T08:05:17;4.82;;;3.55;;
28003;SDS011;15330;51.234;6.754;2024-03-02T08:07:46;5.90;;;3.40;;
28003;SDS011;15330;51.234;6.754;2024-03-02T08:10:12;4.20;;;3.30;;
28003;SDS011;15330;51.234;6.754;2024-03-02T08:12:38;5.88;;;3.53;;
28003;SDS011;15330;51.234;6.754;2024-03-02T08:15:03;5.97;;;3.33;;
28003;SDS011;15330;51.234;6.754;2024-03-02T08:17:29;4.65;;;3.53;;
28003;SDS011;15330;51.234;6.754;2024-03-02T08:19:55;5.32;;;3.42;;
28003;SDS011;15330;51.234;6.754;2024-03-02T08:22:21;5.43;;;3.40;;
28003;SDS011;15330;51.234;6.754;2024-03-02T08:24:47;4.28;;;3.13;;
28003;SDS011;15330;51.234;6.754;2024-03-02T08:27:12;6.82;;;3.55;;
28003;SDS011;15330;51.234;6.754;2024-03-02T08:29:38;7.13;;;3.60;;
28003;SDS011;15330;51.234;6.754;2024-03-02T08:32:04;4.72;;;3.38;;
28003;SDS011;15330;51.234;6.754;2024-03-02T08:34:30;5.05;;;3.30;;
28003;SDS011;15330;51.234;6.754;2024-03-02T08:36:56;7.15;;;3.58;;
28003;SDS011;15330;51.234;6.754;2024-03-02T08:39:21;6.60;;;3.38;;
28003;SDS011;15330;51.234;6.754;2024-03-02T08:41:47;8.80;;;3.83;;
28003;SDS011;15330;51.234;6.754;2024-03-02T08:44:13;5.30;;;3.83;;
28003;SDS011;15330;51.234;6.754;2024-03-02T08:46:39;5.45;;;3.72;;
28003;SDS011;15330;51.234;6.754;2024-03-02T08:49:05;7.93;;;3.95;;
28003;SDS011;15330;51.234;6.754;2024-03-02T08:51:31;5.57;;;3.38;;
28003;SDS011;15330;51.234;6.754;2024-03-02T08:53:57;5.72;;;3.65;;
28003;SDS011;15330;51.234;6.754;2024-03-02T08:56:23;5.45;;;3.80;;
28003;SDS011;15330;51.234;6.754;2024-03-02T08:58:51;4.03;;;3.70;;
28003;SDS011;15330;51.234;6.754;2024-03-02T09:01:17;4.18;;;3.88;;
28003;SDS011;15330;51.234;6.754;2024-03-02T09:03:43;4.40;;;3.63;;
28003;SDS011;15330;51.234;6.754;2024-03-02T09:06:09;3.72;;;3.42;;
28003;SDS011;15330;51.234;6.754;2024-03-02T09:08:35;3.85;;;3.40;;
28003;SDS011;15330;51.234;6.754;2024-03-02T09:11:01;3.50;;;3.20;;
28003;SDS011;15330;51.234;6.754;2024-03-02T09:13:28;7.43;;;3.90;;
28003;SDS011;15330;51.234;6.754;2024-03-02T09:15:54;3.78;;;3.47;;
28003;SDS011;15330;51.234;6.754;2024-03-02T09:18:19;3.40;;;3.20;;
28003;SDS011;15330;51.234;6.754;2024-03-02T09:20:45;3.63;;;3.35;;
28003;SDS011;15330;51.234;6.754;2024-03-02T09:23:11;3.90;;;3.45;;
28003;SDS011;15330;51.234;6.754;2024-03-02T09:25:36;4.15;;;3.75;;
28003;SDS011;15330;51.234;6.754;2024-03-02T09:28:02;3.55;;;3.25;;
28003;SDS011;15330;51.234;6.754;2024-03-02T09:30:28;4.22;;;3.80;;
28003;SDS011;15330;51.234;6.754;2024-03-02T09:32:53;5.93;;;3.50;;
28003;SDS011;15330;51.234;6.754;2024-03-02T09:35:19;4.13;;;3.60;;
28003;SDS011;15330;51.234;6.754;2024-03-02T09:37:44;3.70;;;3.40;;
28003;SDS011;15330;51.234;6.754;2024-03-02T09:40:10;3.63;;;3.42;;
28003;SDS011;15330;51.234;6.754;2024-03-02T09:42:37;5.00;;;4.13;;
28003;SDS011;15330;51.234;6.754;2024-03-02T09:45:02;4.38;;;3.97;;
28003;SDS011;15330;51.234;6.754;2024-03-02T09:47:28;4.15;;;3.85;;
28003;SDS011;15330;51.234;6.754;2024-03-02T09:49:54;5.95;;;3.58;;
28003;SDS011;15330;51.234;6.754;2024-03-02T09:52:21;5.10;;;3.65;;
28003;SDS011;15330;51.234;6.754;2024-03-02T09:54:47;5.15;;;3.80;;
28003;SDS011;15330;51.234;6.754;2024-03-02T09:57:14;4.18;;;3.72;;
28003;SDS011;15330;51.234;6.754;2024-03-02T09:59:39;3.55;;;3.35;;
28003;SDS011;15330;51.234;6.754;2024-03-02T10:02:05;4.63;;;3.55;;
28003;SDS011;15330;51.234;6.754;2024-03-02T10:04:32;4.18;;;3.78;;
28003;SDS011;15330;51.234;6.754;2024-03-02T10:09:38;3.72;;;3.10;;
28003;SDS011;15330;51.234;6.754;2024-03-02T10:12:05;3.60;;;3.08;;
28003;SDS011;15330;51.234;6.754;2024-03-02T10:14:31;5.38;;;4.43;;
28003;SDS011;15330;51.234;6.754;2024-03-02T10:17:01;4.47;;;4.18;;
28003;SDS011;15330;51.234;6.754;2024-03-02T10:19:28;4.68;;;4.38;;
28003;SDS011;15330;51.234;6.754;2024-03-02T10:21:57;7.63;;;4.88;;
28003;SDS011;15330;51.234;6.754;2024-03-02T10:24:24;4.80;;;4.47;;
28003;SDS011;15330;51.234;6.754;2024-03-02T10:26:50;5.65;;;4.82;;
28003;SDS011;15330;51.234;6.754;2024-03-02T10:29:17;5.28;;;4.32;;
28003;SDS011;15330;51.234;6.754;2024-03-02T10:31:44;6.75;;;4.63;;
28003;SDS011;15330;51.234;6.754;2024-03-02T10:34:11;3.88;;;3.38;;
28003;SDS011;15330;51.234;6.754;2024-03-02T10:36:37;4.95;;;4.40;;
28003;SDS011;15330;51.234;6.754;2024-03-02T10:39:07;5.10;;;4.80;;
28003;SDS011;15330;51.234;6.754;2024-03-02T10:41:34;5.07;;;4.20;;
28003;SDS011;15330;51.234;6.754;2024-03-02T10:44:09;5.75;;;4.20;;
28003;SDS011;15330;51.234;6.754;2024-03-02T10:46:36;7.93;;;4.03;;
28003;SDS011;15330;51.234;6.754;2024-03-02T10:49:03;4.43;;;3.80;;
28003;SDS011;15330;51.234;6.754;2024-03-02T10:51:30;4.30;;;4.10;;
28003;SDS011;15330;51.234;6.754;2024-03-02T10:53:58;5.32;;;4.93;;
28003;SDS011;15330;51.234;6.754;2024-03-02T10:56:29;4.90;;;4.50;;
28003;SDS011;15330;51.234;6.754;2024-03-02T10:59:32;4.75;;;4.35;;
28003;SDS011;15330;51.234;6.754;2024-03-02T11:01:56;4.50;;;4.20;;
28003;SDS011;15330;51.234;6.754;2024-03-02T11:04:26;3.80;;;3.60;;
28003;SDS011;15330;51.234;6.754;2024-03-02T11:06:54;5.97;;;5.50;;
28003;SDS011;15330;51.234;6.754;2024-03-02T11:09:25;5.53;;;5.00;;
28003;SDS011;15330;51.234;6.754;2024-03-02T11:12:00;4.95;;;4.65;;
28003;SDS011;15330;51.234;6.754;2024-03-02T11:14:31;4.65;;;4.30;;
28003;SDS011;15330;51.234;6.754;2024-03-02T11:17:00;5.43;;;3.13;;
28003;SDS011;15330;51.234;6.754;2024-03-02T11:19:28;5.20;;;4.20;;
28003;SDS011;15330;51.234;6.754;2024-03-02T11:21:56;5.47;;;4.47;;
28003;SDS011;15330;51.234;6.754;2024-03-02T11:26:52;5.57;;;5.18;;
28003;SDS011;15330;51.234;6.754;2024-03-02T11:30:00;6.10;;;5.50;;
28003;SDS011;15330;51.234;6.754;2024-03-02T11:32:16;5.80;;;5.40;;
28003;SDS011;15330;51.234;6.754;2024-03-02T11:34:46;6.05;;;4.50;;
28003;SDS011;15330;51.234;6.754;2024-03-02T11:37:14;4.43;;;4.03;;
28003;SDS011;15330;51.234;6.754;2024-03-02T11:39:41;5.07;;;4.13;;
28003;SDS011;15330;51.234;6.754;2024-03-02T11:42:09;5.18;;;4.07;;
28003;SDS011;15330;51.234;6.754;2024-03-02T11:44:36;7.25;;;3.88;;
28003;SDS011;15330;51.234;6.754;2024-03-02T11:47:05;4.78;;;4.00;;
28003;SDS011;15330;51.234;6.754;2024-03-02T11:49:50;6.68;;;4.07;;
28003;SDS011;15330;51.234;6.754;2024-03-02T11:52:19;5.13;;;4.20;;
28003;SDS011;15330;51.234;6.754;2024-03-02T11:54:46;5.05;;;3.83;;
28003;SDS011;15330;51.234;6.754;2024-03-02T11:57:16;6.03;;;4.20;;
28003;SDS011;15330;51.234;6.754;2024-03-02T11:59:47;3.88;;;3.53;;
28003;SDS011;15330;51.234;6.754;2024-03-02T12:02:17;7.10;;;3.40;;
28003;SDS011;15330;51.234;6.754;2024-03-02T12:04:44;4.80;;;3.50;;
28003;SDS011;15330;51.234;6.754;2024-03-02T12:07:11;4.20;;;3.42;;
28003;SDS011;15330;51.234;6.754;2024-03-02T12:09:37;6.40;;;3.30;;
28003;SDS011;15330;51.234;6.754;2024-03-02T12:12:07;3.85;;;3.03;;
28003;SDS011;15330;51.234;6.754;2024-03-02T12:14:34;4.15;;;3.22;;
28003;SDS011;15330;51.234;6.754;2024-03-02T12:17:01;3.78;;;3.45;;
28003;SDS011;15330;51.234;6.754;2024-03-02T12:19:28;6.63;;;3.50;;
28003;SDS011;15330;51.234;6.754;2024-03-02T12:21:55;4.78;;;3.05;;
28003;SDS011;15330;51.234;6.754;2024-03-02T12:24:24;3.40;;;3.13;;
28003;SDS011;15330;51.234;6.754;2024-03-02T12:26:51;4.80;;;3.38;;
28003;SDS011;15330;51.234;6.754;2024-03-02T12:29:19;2.92;;;2.63;;
28003;SDS011;15330;51.234;6.754;2024-03-02T12:31:45;2.78;;;2.58;;
28003;SDS011;15330;51.234;6.754;2024-03-02T12:34:14;3.10;;;2.65;;
28003;SDS011;15330;51.234;6.754;2024-03-02T12:36:41;2.97;;;2.60;;
28003;SDS011;15330;51.234;6.754;2024-03-02T12:39:09;3.00;;;2.60;;
28003;SDS011;15330;51.234;6.754;2024-03-02T12:41:38;2.85;;;2.65;;
28003;SDS011;15330;51.234;6.754;2024-03-02T12:44:06;2.80;;;2.60;;
28003;SDS011;15330;51.234;6.754;2024-03-02T12:46:32;3.63;;;2.72;;
28003;SDS011;15330;51.234;6.754;2024-03-02T12:48:58;4.18;;;3.00;;
28003;SDS011;15330;51.234;6.754;2024-03-02T12:51:29;6.25;;;2.80;;
28003;SDS011;15330;51.234;6.754;2024-03-02T12:53:55;3.10;;;2.67;;
28003;SDS011;15330;51.234;6.754;2024-03-02T12:56:22;4.57;;;3.10;;
28003;SDS011;15330;51.234;6.754;2024-03-02T12:58:47;3.53;;;2.75;;
28003;SDS011;15330;51.234;6.754;2024-03-02T13:01:17;4.70;;;3.13;;
28003;SDS011;15330;51.234;6.754;2024-03-02T13:03:44;3.17;;;2.88;;
28003;SDS011;15330;51.234;6.754;2024-03-02T13:06:09;3.55;;;3.25;;
28003;SDS011;15330;51.234;6.754;2024-03-02T13:08:35;4.07;;;3.15;;
28003;SDS011;15330;51.234;6.754;2024-03-02T13:11:00;4.13;;;3.60;;
28003;SDS011;15330;51.234;6.754;2024-03-02T13:13:26;4.65;;;3.17;;
28003;SDS011;15330;51.234;6.754;2024-03-02T13:15:55;3.53;;;3.20;;
28003;SDS011;15330;51.234;6.754;2024-03-02T13:18:21;4.05;;;3.00;;
28003;SDS011;15330;51.234;6.754;2024-03-02T13:20:47;3.28;;;2.97;;
28003;SDS011;15330;51.234;6.754;2024-03-02T13:23:12;3.53;;;3.10;;
28003;SDS011;15330;51.234;6.754;2024-03-02T13:25:38;3.15;;;2.83;;
28003;SDS011;15330;51.234;6.754;2024-03-02T13:28:03;3.53;;;2.88;;
28003;SDS011;15330;51.234;6.754;2024-03-02T13:30:29;3.20;;;2.67;;
28003;SDS011;15330;51.234;6.754;2024-03-02T13:32:55;3.63;;;2.55;;
28003;SDS011;15330;51.234;6.754;2024-03-02T13:35:20;3.95;;;2.75;;
28003;SDS011;15330;51.234;6.754;2024-03-02T13:37:45;3.20;;;2.90;;
28003;SDS011;15330;51.234;6.754;2024-03-02T13:40:11;2.63;;;2.42;;
28003;SDS011;15330;51.234;6.754;2024-03-02T13:42:41;11.50;;;3.00;;
28003;SDS011;15330;51.234;6.754;2024-03-02T13:45:06;2.85;;;2.63;;
28003;SDS011;15330;51.234;6.754;2024-03-02T13:47:32;3.22;;;2.70;;
28003;SDS011;15330;51.234;6.754;2024-03-02T13:49:58;3.50;;;2.50;;
28003;SDS011;15330;51.234;6.754;2024-03-02T13:52:23;3.10;;;2.38;;
28003;SDS011;15330;51.234;6.754;2024-03-02T13:54:50;2.83;;;2.45;;
28003;SDS011;15330;51.234;6.754;2024-03-02T13:57:17;3.78;;;2.38;;
28003;SDS011;15330;51.234;6.754;2024-03-02T13:59:44;2.55;;;2.35;;
28003;SDS011;15330;51.234;6.754;2024-03-02T14:02:11;3.13;;;2.60;;
28003;SDS011;15330;51.234;6.754;2024-03-02T14:04:37;4.60;;;2.30;;
28003;SDS011;15330;51.234;6.754;2024-03-02T14:07:03;5.35;;;2.65;;
28003;SDS011;15330;51.234;6.754;2024-03-02T14:09:33;3.45;;;2.20;;
28003;SDS011;15330;51.234;6.754;2024-03-02T14:11:58;2.40;;;2.30;;
28003;SDS011;15330;51.234;6.754;2024-03-02T14:14:25;2.63;;;2.30;;
28003;SDS011;15330;51.234;6.754;2024-03-02T14:16:52;2.83;;;2.63;;
28003;SDS011;15330;51.234;6.754;2024-03-02T14:19:19;2.45;;;2.25;;
28003;SDS011;15330;51.234;6.754;2024-03-02T14:21:44;2.70;;;2.50;;
28003;SDS011;15330;51.234;6.754;2024-03-02T14:24:10;3.53;;;2.65;;
28003;SDS011;15330;51.234;6.754;2024-03-02T14:26:36;2.95;;;2.65;;
28003;SDS011;15330;51.234;6.754;2024-03-02T14:29:02;3.20;;;2.78;;
28003;SDS011;15330;51.234;6.754;2024-03-02T14:31:28;3.80;;;2.67;;
28003;SDS011;15330;51.234;6.754;2024-03-02T14:33:54;4.88;;;2.45;;
28003;SDS011;15330;51.234;6.754;2024-03-02T14:36:20;3.00;;;2.70;;
28003;SDS011;15330;51.234;6.754;2024-03-02T14:38:45;2.78;;;2.40;;
28003;SDS011;15330;51.234;6.754;2024-03-02T14:41:11;3.35;;;2.75;;
28003;SDS011;15330;51.234;6.754;2024-03-02T14:43:37;2.83;;;2.60;;
28003;SDS011;15330;51.234;6.754;2024-03-02T14:46:02;3.50;;;2.58;;
28003;SDS011;15330;51.234;6.754;2024-03-02T14:48:28;2.78;;;2.55;;
28003;SDS011;15330;51.234;6.754;2024-03-02T14:50:54;3.70;;;2.65;;